Time;durP1;ratioP1;P1;durP2;ratioP2;P2;SDS_P1;SDS_P2;PMS_P1;PMS_P2;Temp;Humidity;BMP_temperature;BMP_pressure;BME280_temperature;BME280_humidity;BME280_pressure;Samples;Min_cycle;Max_cycle;Signal;HPM_P1;HPM_P2
2023/10/15 00:00:13;;;;;;;1.65;0.65;;;18.10;57.30;;;;;;6101337;23;20187;-87
2023/10/15 00:02:41;;;;;;;1.73;0.70;;;18.10;56.70;;;;;;6101816;23;20139;-84
2023/10/15 00:05:15;;;;;;;1.15;0.45;;;18.10;56.70;;;;;;6100910;23;20167;-83
2023/10/15 00:07:47;;;;;;;1.63;0.50;;;18.10;56.70;;;;;;6029132;23;20195;-84
2023/10/15 00:10:22;;;;;;;1.50;0.60;;;18.10;56.70;;;;;;6029699;23;20588;-83
2023/10/15 00:12:50;;;;;;;1.20;0.50;;;18.10;56.70;;;;;;6101139;23;20135;-82
2023/10/15 00:15:18;;;;;;;1.95;0.60;;;18.10;56.70;;;;;;6100788;23;20472;-85
2023/10/15 00:17:51;;;;;;;0.80;0.55;;;18.10;56.70;;;;;;6076785;23;20152;-83
2023/10/15 00:20:23;;;;;;;0.95;0.40;;;18.00;56.70;;;;;;6052572;23;20156;-85
2023/10/15 00:22:51;;;;;;;0.55;0.50;;;18.10;56.70;;;;;;6005497;23;20565;-85
2023/10/15 00:25:21;;;;;;;0.93;0.60;;;18.10;56.70;;;;;;6126409;23;20171;-84
2023/10/15 00:27:52;;;;;;;0.60;0.50;;;18.10;56.80;;;;;;6028092;23;20155;-84
2023/10/15 00:30:19;;;;;;;0.70;0.40;;;18.10;56.80;;;;;;6124443;23;20211;-83
2023/10/15 00:32:47;;;;;;;1.20;0.60;;;18.00;56.70;;;;;;6125000;23;20144;-83
2023/10/15 00:35:19;;;;;;;1.33;0.65;;;18.00;56.70;;;;;;6099872;23;20214;-84
2023/10/15 00:37:54;;;;;;;1.05;0.50;;;18.00;56.70;;;;;;6105739;23;20187;-83
2023/10/15 00:40:21;;;;;;;1.33;0.60;;;18.10;56.80;;;;;;6131503;23;20136;-83
2023/10/15 00:42:48;;;;;;;2.05;0.50;;;18.00;56.80;;;;;;6105401;23;20211;-85
2023/10/15 00:45:14;;;;;;;0.65;0.47;;;18.00;56.80;;;;;;6130166;23;20186;-85
2023/10/15 00:47:43;;;;;;;0.65;0.50;;;18.00;56.80;;;;;;6105190;23;20881;-84
2023/10/15 00:50:10;;;;;;;1.33;0.50;;;18.00;56.80;;;;;;6129879;23;20163;-84
2023/10/15 00:52:42;;;;;;;1.17;0.50;;;18.00;56.80;;;;;;6130090;23;20128;-83
2023/10/15 00:55:12;;;;;;;1.40;0.65;;;18.00;56.80;;;;;;6131204;23;20139;-84
2023/10/15 00:57:45;;;;;;;1.17;0.60;;;18.00;56.90;;;;;;6129670;23;20135;-87
2023/10/15 01:00:38;;;;;;;0.95;0.50;;;18.00;56.80;;;;;;6155447;23;20191;-87
2023/10/15 01:02:58;;;;;;;1.10;0.68;;;18.00;56.80;;;;;;6134904;23;20151;-83
2023/10/15 01:05:33;;;;;;;1.33;0.60;;;18.00;56.90;;;;;;6106725;23;20207;-84
2023/10/15 01:08:03;;;;;;;1.38;0.65;;;18.00;56.90;;;;;;6085489;23;20151;-85
2023/10/15 01:10:36;;;;;;;0.75;0.40;;;17.90;56.90;;;;;;6132053;23;20186;-84
2023/10/15 01:13:16;;;;;;;1.00;0.50;;;18.00;56.90;;;;;;6157318;23;20135;-85
2023/10/15 01:15:43;;;;;;;0.98;0.45;;;18.00;57.00;;;;;;6133845;23;20132;-83
2023/10/15 01:18:13;;;;;;;0.95;0.50;;;18.00;57.00;;;;;;6107026;23;20159;-84
2023/10/15 01:20:43;;;;;;;1.42;0.68;;;18.00;57.00;;;;;;6035119;23;20181;-86
2023/10/15 01:23:28;;;;;;;0.70;0.50;;;17.90;56.90;;;;;;6131285;23;20152;-84
2023/10/15 01:25:57;;;;;;;0.90;0.50;;;18.00;57.00;;;;;;6110454;23;20257;-84
2023/10/15 01:28:36;;;;;;;0.60;0.50;;;18.00;57.00;;;;;;6131538;23;20135;-85
2023/10/15 01:31:06;;;;;;;1.02;0.60;;;18.00;57.00;;;;;;6109391;23;20147;-85
2023/10/15 01:33:45;;;;;;;1.00;0.50;;;18.00;57.00;;;;;;6107754;23;20532;-84
2023/10/15 01:36:19;;;;;;;0.65;0.40;;;18.00;57.00;;;;;;6109475;23;20135;-85
2023/10/15 01:38:45;;;;;;;1.88;0.70;;;18.00;57.00;;;;;;6038148;23;20155;-84
2023/10/15 01:41:13;;;;;;;0.60;0.40;;;18.00;57.00;;;;;;6131125;23;20171;-83
2023/10/15 01:43:41;;;;;;;0.65;0.50;;;18.00;57.00;;;;;;6157392;23;20163;-83
2023/10/15 01:46:10;;;;;;;2.47;0.65;;;18.00;57.10;;;;;;6131736;23;20163;-87
2023/10/15 01:48:40;;;;;;;1.52;0.60;;;18.00;57.10;;;;;;6107574;23;20515;-84
2023/10/15 01:51:06;;;;;;;0.77;0.30;;;18.10;57.10;;;;;;6107689;23;20140;-87
2023/10/15 01:53:39;;;;;;;1.15;0.50;;;18.00;57.10;;;;;;6130277;23;20156;-85
2023/10/15 01:56:16;;;;;;;1.10;0.52;;;18.00;57.10;;;;;;6035594;23;20166;-83
2023/10/15 01:58:44;;;;;;;1.05;0.50;;;18.00;57.10;;;;;;6065436;23;20532;-82
2023/10/15 02:01:19;;;;;;;1.45;0.50;;;18.00;57.10;;;;;;6157253;23;20144;-86
2023/10/15 02:03:45;;;;;;;1.25;0.80;;;18.00;57.10;;;;;;6133150;23;20138;-83
2023/10/15 02:06:11;;;;;;;1.25;0.50;;;18.00;57.10;;;;;;6157056;23;20175;-85
2023/10/15 02:08:39;;;;;;;1.17;0.60;;;18.00;57.10;;;;;;6131420;23;20143;-86
2023/10/15 02:11:21;;;;;;;1.55;0.75;;;18.00;57.10;;;;;;6131575;23;20144;-83
2023/10/15 02:13:48;;;;;;;2.30;0.55;;;18.00;57.10;;;;;;6130266;23;20575;-83
2023/10/15 02:16:17;;;;;;;1.52;0.60;;;17.90;57.00;;;;;;6131149;23;20170;-86
2023/10/15 02:18:45;;;;;;;1.08;0.43;;;18.00;57.10;;;;;;6157392;23;20186;-83
2023/10/15 02:21:16;;;;;;;1.15;0.50;;;18.00;57.10;;;;;;6131119;23;20449;-83
2023/10/15 02:23:49;;;;;;;0.63;0.50;;;18.00;57.10;;;;;;6132054;23;20142;-84
2023/10/15 02:26:18;;;;;;;1.17;0.60;;;18.00;57.20;;;;;;6132331;23;20250;-84
2023/10/15 02:28:53;;;;;;;1.08;0.50;;;18.00;57.20;;;;;;6130972;23;20662;-83
2023/10/15 02:31:22;;;;;;;0.75;0.50;;;18.00;57.20;;;;;;6037893;23;20147;-83
2023/10/15 02:33:49;;;;;;;1.27;0.60;;;18.10;57.20;;;;;;6156753;23;20151;-85
2023/10/15 02:36:16;;;;;;;0.98;0.50;;;18.00;57.20;;;;;;6131034;23;20586;-85
2023/10/15 02:38:52;;;;;;;1.40;0.52;;;18.00;57.10;;;;;;6130816;23;20143;-82
2023/10/15 02:41:20;;;;;;;0.88;0.50;;;18.00;57.20;;;;;;6156540;23;20158;-84
2023/10/15 02:43:53;;;;;;;0.80;0.50;;;18.00;57.20;;;;;;6156423;23;20139;-83
2023/10/15 02:46:22;;;;;;;1.25;0.63;;;18.00;57.20;;;;;;6132176;23;20251;-83
2023/10/15 02:48:55;;;;;;;1.75;0.55;;;18.00;57.20;;;;;;6156747;23;20591;-87
2023/10/15 02:51:24;;;;;;;0.52;0.40;;;18.00;57.30;;;;;;6131102;23;20136;-87
2023/10/15 02:53:52;;;;;;;1.75;0.80;;;18.00;57.30;;;;;;6130193;23;20131;-84
2023/10/15 02:56:19;;;;;;;0.95;0.60;;;17.90;57.20;;;;;;6156567;23;20163;-84
2023/10/15 02:58:45;;;;;;;0.57;0.40;;;18.00;57.30;;;;;;6151172;23;20148;-86
2023/10/15 03:01:26;;;;;;;1.80;0.63;;;18.00;57.20;;;;;;6072232;23;20137;-84
2023/10/15 03:03:52;;;;;;;2.20;0.77;;;18.00;57.30;;;;;;6051100;23;20204;-86
2023/10/15 03:06:35;;;;;;;1.33;0.60;;;18.00;57.30;;;;;;6097221;23;20164;-83
2023/10/15 03:09:11;;;;;;;1.33;0.60;;;18.00;57.30;;;;;;6075709;23;20185;-86
2023/10/15 03:11:38;;;;;;;1.58;0.70;;;18.00;57.30;;;;;;6097834;23;20604;-85
2023/10/15 03:14:06;;;;;;;1.10;0.70;;;18.00;57.30;;;;;;6071788;23;20450;-83
2023/10/15 03:16:34;;;;;;;1.65;0.55;;;18.00;57.30;;;;;;6048629;23;20152;-87
2023/10/15 03:19:09;;;;;;;2.20;0.52;;;18.00;57.30;;;;;;6071725;23;20348;-83
2023/10/15 03:21:39;;;;;;;1.33;0.60;;;18.00;57.40;;;;;;6049340;23;20492;-84
2023/10/15 03:24:05;;;;;;;1.05;0.50;;;17.90;57.30;;;;;;6072212;23;20141;-83
2023/10/15 03:26:34;;;;;;;1.60;0.70;;;17.90;57.40;;;;;;6096481;23;20224;-84
2023/10/15 03:29:06;;;;;;;1.08;0.47;;;18.00;57.40;;;;;;6023281;23;20191;-85
2023/10/15 03:31:36;;;;;;;1.65;0.85;;;17.90;57.40;;;;;;6072748;23;20139;-85
2023/10/15 03:36:57;;;;;;;1.38;0.60;;;17.90;57.40;;;;;;6074665;23;20141;-86
2023/10/15 03:39:25;;;;;;;0.70;0.57;;;17.90;57.40;;;;;;6043216;23;20201;-84
2023/10/15 03:41:54;;;;;;;1.35;0.60;;;17.90;57.30;;;;;;6047392;23;20574;-85
2023/10/15 03:44:27;;;;;;;1.40;0.73;;;17.90;57.30;;;;;;6071530;23;20510;-85
2023/10/15 03:46:54;;;;;;;1.08;0.60;;;18.00;57.40;;;;;;6070753;23;20545;-84
2023/10/15 03:49:27;;;;;;;1.20;0.40;;;17.90;57.40;;;;;;6096559;23;20596;-83
2023/10/15 03:51:53;;;;;;;1.98;0.50;;;17.90;57.40;;;;;;6096409;23;20183;-86
2023/10/15 03:54:22;;;;;;;1.33;0.50;;;17.90;57.40;;;;;;6069973;23;20137;-85
2023/10/15 03:56:48;;;;;;;1.30;0.52;;;17.90;57.40;;;;;;6036256;23;20157;-85
2023/10/15 03:59:14;;;;;;;1.25;0.60;;;17.90;57.50;;;;;;6078733;23;20254;-83
2023/10/15 04:01:47;;;;;;;1.23;0.60;;;17.90;57.40;;;;;;6099624;23;20148;-85
2023/10/15 04:04:16;;;;;;;1.17;0.47;;;18.00;57.40;;;;;;6101198;23;20132;-83
2023/10/15 04:06:45;;;;;;;1.42;0.52;;;17.90;57.40;;;;;;6076227;23;20184;-85
2023/10/15 04:09:13;;;;;;;1.63;0.60;;;17.90;57.40;;;;;;6076214;23;20148;-85
2023/10/15 04:11:45;;;;;;;0.90;0.50;;;17.90;57.50;;;;;;6100201;23;20226;-85
2023/10/15 04:14:15;;;;;;;1.02;0.60;;;18.00;57.50;;;;;;6076952;23;20148;-85
2023/10/15 04:16:41;;;;;;;0.85;0.47;;;18.00;57.40;;;;;;6076310;23;20301;-84
2023/10/15 04:19:08;;;;;;;0.88;0.50;;;18.00;57.50;;;;;;6125407;23;20141;-86
2023/10/15 04:21:38;;;;;;;1.67;0.75;;;18.00;57.40;;;;;;6075213;23;20156;-83
2023/10/15 04:24:07;;;;;;;0.63;0.40;;;18.00;57.40;;;;;;6100717;23;20523;-84
2023/10/15 04:26:35;;;;;;;0.50;0.30;;;17.90;57.40;;;;;;6099792;23;20222;-83
2023/10/15 04:29:15;;;;;;;1.33;0.60;;;17.90;57.40;;;;;;6076390;23;20148;-84
2023/10/15 04:31:44;;;;;;;1.40;0.60;;;17.90;57.50;;;;;;6102859;23;20124;-83
2023/10/15 04:34:18;;;;;;;0.63;0.45;;;17.90;57.40;;;;;;6125578;23;20139;-83
2023/10/15 04:36:45;;;;;;;1.23;0.68;;;17.90;57.40;;;;;;6077498;23;20564;-84
2023/10/15 04:39:13;;;;;;;0.77;0.50;;;17.90;57.40;;;;;;6077478;23;20159;-85
2023/10/15 04:41:40;;;;;;;0.47;0.30;;;17.90;57.40;;;;;;6101185;23;20137;-85
2023/10/15 04:44:13;;;;;;;0.80;0.50;;;17.90;57.40;;;;;;6101815;23;20139;-85
2023/10/15 04:46:42;;;;;;;1.45;0.55;;;17.90;57.40;;;;;;6102825;23;20168;-84
2023/10/15 04:49:09;;;;;;;0.68;0.52;;;17.90;57.50;;;;;;6102392;23;20128;-84
2023/10/15 04:51:42;;;;;;;0.57;0.47;;;17.90;57.50;;;;;;6077516;23;20548;-84
2023/10/15 04:54:09;;;;;;;1.17;0.65;;;17.90;57.50;;;;;;6102037;23;20183;-83
2023/10/15 04:56:35;;;;;;;0.73;0.40;;;17.90;57.50;;;;;;6101639;23;20239;-85
2023/10/15 04:59:01;;;;;;;0.60;0.50;;;17.90;57.60;;;;;;6101167;23;20214;-83
2023/10/15 05:01:26;;;;;;;1.25;0.75;;;17.90;57.60;;;;;;6077375;23;20584;-83
2023/10/15 05:03:52;;;;;;;0.88;0.47;;;17.90;57.60;;;;;;6101879;23;20147;-84
2023/10/15 05:06:18;;;;;;;0.70;0.40;;;17.90;57.60;;;;;;6101422;23;20196;-85
2023/10/15 05:08:47;;;;;;;1.33;0.70;;;17.90;57.60;;;;;;6077358;23;20152;-84
2023/10/15 05:11:13;;;;;;;0.98;0.60;;;17.90;57.60;;;;;;6078066;23;20157;-85
2023/10/15 05:13:42;;;;;;;1.50;0.60;;;17.90;57.60;;;;;;6099928;23;20599;-86
2023/10/15 05:16:08;;;;;;;1.55;0.50;;;17.90;58.30;;;;;;6078056;23;20928;-85
2023/10/15 05:18:34;;;;;;;0.95;0.47;;;17.90;57.60;;;;;;6100841;23;20163;-86
2023/10/15 05:21:00;;;;;;;1.27;0.60;;;17.90;57.60;;;;;;6077349;23;20592;-86
2023/10/15 05:23:26;;;;;;;1.13;0.40;;;17.90;57.60;;;;;;6077353;23;20152;-84
2023/10/15 05:25:54;;;;;;;0.95;0.50;;;17.90;57.60;;;;;;6126941;23;20167;-87
2023/10/15 05:28:20;;;;;;;0.98;0.60;;;17.90;57.60;;;;;;6101130;23;20227;-84
2023/10/15 05:30:46;;;;;;;1.35;0.50;;;17.90;57.60;;;;;;6101003;23;20468;-86
2023/10/15 05:33:11;;;;;;;0.93;0.60;;;17.90;57.60;;;;;;6101189;23;20140;-84
2023/10/15 05:35:37;;;;;;;0.63;0.40;;;17.90;57.70;;;;;;6101531;23;20151;-84
2023/10/15 05:38:04;;;;;;;0.73;0.45;;;17.90;57.70;;;;;;6101025;23;20552;-85
2023/10/15 05:40:29;;;;;;;0.75;0.47;;;17.90;57.60;;;;;;6126978;23;20139;-84
2023/10/15 05:42:55;;;;;;;0.95;0.50;;;17.90;57.60;;;;;;6076792;23;20457;-83
2023/10/15 05:45:21;;;;;;;0.70;0.30;;;17.90;57.60;;;;;;6126795;23;20168;-85
2023/10/15 05:47:46;;;;;;;0.70;0.40;;;17.90;57.70;;;;;;6100961;23;20147;-87
2023/10/15 05:50:13;;;;;;;0.43;0.30;;;17.90;57.70;;;;;;6126399;23;20637;-85
2023/10/15 05:52:39;;;;;;;1.33;0.60;;;17.80;57.70;;;;;;6100480;23;20231;-86
2023/10/15 05:55:06;;;;;;;0.85;0.50;;;17.90;57.60;;;;;;6076398;23;20164;-84
2023/10/15 05:57:34;;;;;;;1.35;0.70;;;17.90;57.70;;;;;;6076761;23;20156;-85
2023/10/15 06:00:17;;;;;;;1.85;0.70;;;17.90;57.70;;;;;;6028813;23;20207;-82
2023/10/15 06:02:51;;;;;;;0.88;0.60;;;17.90;57.60;;;;;;6080183;23;20148;-83
2023/10/15 06:05:16;;;;;;;1.42;0.47;;;17.90;57.60;;;;;;6100778;23;20160;-84
2023/10/15 06:07:43;;;;;;;1.30;0.60;;;17.90;57.60;;;;;;6100899;23;20203;-84
2023/10/15 06:10:11;;;;;;;0.98;0.60;;;17.90;57.70;;;;;;6100918;23;20140;-85
2023/10/15 06:12:38;;;;;;;1.05;0.40;;;17.80;57.60;;;;;;6101149;23;20171;-84
2023/10/15 06:15:04;;;;;;;1.20;0.50;;;18.00;57.80;;;;;;6100725;23;20140;-84
2023/10/15 06:17:30;;;;;;;0.82;0.43;;;17.90;57.70;;;;;;6100446;23;20152;-86
2023/10/15 06:19:56;;;;;;;1.65;0.50;;;17.90;57.80;;;;;;6076663;23;20207;-84
2023/10/15 06:22:22;;;;;;;0.95;0.60;;;17.90;57.60;;;;;;6100612;23;20240;-84
2023/10/15 06:24:47;;;;;;;1.48;0.40;;;17.90;57.70;;;;;;6126307;23;20174;-86
2023/10/15 06:27:13;;;;;;;0.95;0.47;;;17.90;57.70;;;;;;6100670;23;20137;-85
2023/10/15 06:29:39;;;;;;;0.82;0.68;;;17.90;57.70;;;;;;6076364;23;20159;-86
2023/10/15 06:32:05;;;;;;;1.10;0.60;;;18.00;57.80;;;;;;6076838;23;20816;-84
2023/10/15 06:34:32;;;;;;;0.95;0.45;;;17.80;57.70;;;;;;6074183;23;20153;-84
2023/10/15 06:36:58;;;;;;;0.45;0.40;;;17.90;57.80;;;;;;6100344;23;20152;-84
2023/10/15 06:39:26;;;;;;;1.08;0.52;;;17.90;57.90;;;;;;6126326;23;20140;-85
2023/10/15 06:41:55;;;;;;;0.98;0.55;;;17.90;57.70;;;;;;6100685;23;20136;-86
2023/10/15 06:44:21;;;;;;;1.40;0.45;;;17.90;57.40;;;;;;6028020;23;20152;-86
2023/10/15 06:46:47;;;;;;;1.60;0.60;;;18.00;57.10;;;;;;6100012;23;20179;-83
2023/10/15 06:49:13;;;;;;;1.33;0.50;;;18.00;56.60;;;;;;6100344;23;20144;-84
2023/10/15 06:51:39;;;;;;;0.45;0.30;;;18.10;56.40;;;;;;6100022;23;20210;-86
2023/10/15 06:54:05;;;;;;;1.17;0.50;;;18.10;56.10;;;;;;6125273;23;20147;-85
2023/10/15 06:56:31;;;;;;;0.90;0.38;;;18.10;55.90;;;;;;6126215;23;20140;-83
2023/10/15 06:58:57;;;;;;;0.40;0.30;;;18.10;55.90;;;;;;6099870;23;20568;-85
2023/10/15 07:01:26;;;;;;;1.05;0.50;;;18.00;55.70;;;;;;6100479;23;20132;-84
2023/10/15 07:03:52;;;;;;;0.95;0.60;;;18.10;55.50;;;;;;6101067;23;20133;-84
2023/10/15 07:06:19;;;;;;;0.70;0.40;;;18.20;55.40;;;;;;6075861;23;20226;-86
2023/10/15 07:08:45;;;;;;;1.13;0.50;;;18.10;55.30;;;;;;6100646;23;20210;-86
2023/10/15 07:11:10;;;;;;;1.60;0.47;;;18.20;55.40;;;;;;6100556;23;20488;-85
2023/10/15 07:13:36;;;;;;;0.80;0.50;;;18.20;55.10;;;;;;6076103;23;20182;-82
2023/10/15 07:16:02;;;;;;;0.52;0.28;;;18.20;54.90;;;;;;6100202;23;20163;-86
2023/10/15 07:18:28;;;;;;;0.50;0.30;;;18.20;54.90;;;;;;6099881;23;20794;-85
2023/10/15 07:20:54;;;;;;;0.80;0.20;;;18.20;54.80;;;;;;6125999;23;20136;-84
2023/10/15 07:23:21;;;;;;;0.60;0.40;;;18.20;54.60;;;;;;6076079;23;20494;-84
2023/10/15 07:25:46;;;;;;;0.65;0.40;;;18.20;54.70;;;;;;6100124;23;20164;-84
2023/10/15 07:28:12;;;;;;;0.50;0.30;;;18.20;54.60;;;;;;6100144;23;20140;-87
2023/10/15 07:30:38;;;;;;;0.70;0.30;;;18.20;54.60;;;;;;6125706;23;20175;-84
2023/10/15 07:33:04;;;;;;;1.33;0.45;;;18.10;54.60;;;;;;6100225;23;20191;-86
2023/10/15 07:35:30;;;;;;;0.40;0.20;;;18.20;54.30;;;;;;6099815;23;20159;-85
2023/10/15 07:37:56;;;;;;;0.70;0.30;;;18.20;54.20;;;;;;6075990;23;20156;-83
2023/10/15 07:40:23;;;;;;;1.00;0.30;;;18.10;54.20;;;;;;6100311;23;20132;-87
2023/10/15 07:42:52;;;;;;;0.98;0.40;;;18.20;54.10;;;;;;6099934;23;20140;-84
2023/10/15 07:45:18;;;;;;;0.25;0.25;;;18.10;53.90;;;;;;6075507;23;20184;-83
2023/10/15 07:47:44;;;;;;;0.20;0.20;;;18.20;53.90;;;;;;6125773;23;20215;-85
2023/10/15 07:50:23;;;;;;;0.35;0.35;;;18.20;53.90;;;;;;6075877;23;20480;-85
2023/10/15 07:52:49;;;;;;;0.65;0.20;;;18.20;53.90;;;;;;6101407;23;20140;-85
2023/10/15 07:55:14;;;;;;;0.20;0.20;;;18.10;53.80;;;;;;6099799;23;20243;-86
2023/10/15 07:57:40;;;;;;;0.65;0.40;;;18.20;53.70;;;;;;6099795;23;20680;-86
2023/10/15 08:00:07;;;;;;;0.20;0.20;;;18.00;53.60;;;;;;6099768;23;20195;-87
2023/10/15 08:02:34;;;;;;;0.85;0.40;;;18.10;53.70;;;;;;6075662;23;20199;-85
2023/10/15 08:05:00;;;;;;;0.52;0.20;;;18.10;53.60;;;;;;6100239;23;20164;-84
2023/10/15 08:07:28;;;;;;;0.50;0.30;;;18.10;53.50;;;;;;6099877;23;20211;-85
2023/10/15 08:09:53;;;;;;;0.35;0.22;;;18.10;53.30;;;;;;6126114;23;20564;-84
2023/10/15 08:12:19;;;;;;;0.40;0.30;;;18.10;53.20;;;;;;6125710;23;20144;-84
2023/10/15 08:14:46;;;;;;;0.20;0.20;;;18.20;53.20;;;;;;6100946;23;20136;-85
2023/10/15 08:17:13;;;;;;;0.50;0.20;;;18.10;53.10;;;;;;6100610;23;20215;-85
2023/10/15 08:19:39;;;;;;;0.22;0.20;;;18.10;53.20;;;;;;6100728;23;20136;-85
2023/10/15 08:22:05;;;;;;;0.28;0.20;;;18.00;53.00;;;;;;6105545;23;20476;-83
2023/10/15 08:24:30;;;;;;;0.38;0.30;;;18.10;52.90;;;;;;6081003;23;20879;-84
2023/10/15 08:26:57;;;;;;;0.70;0.20;;;18.10;52.90;;;;;;6105587;23;20168;-85
2023/10/15 08:29:26;;;;;;;0.75;0.47;;;18.10;53.00;;;;;;6134060;23;20608;-83
2023/10/15 08:31:52;;;;;;;0.35;0.20;;;18.10;53.20;;;;;;6085004;23;20491;-84
2023/10/15 08:34:18;;;;;;;0.30;0.20;;;18.10;53.00;;;;;;6108992;23;20152;-83
2023/10/15 08:36:44;;;;;;;1.80;0.40;;;18.10;53.00;;;;;;6086483;23;20184;-85
2023/10/15 08:39:12;;;;;;;0.13;0.13;;;18.10;52.80;;;;;;6110404;23;20140;-86
2023/10/15 08:41:38;;;;;;;1.15;0.30;;;18.10;53.00;;;;;;6135220;23;20136;-84
2023/10/15 08:44:07;;;;;;;0.40;0.30;;;18.10;52.80;;;;;;6110620;23;20561;-84
2023/10/15 08:46:35;;;;;;;0.50;0.28;;;18.10;52.70;;;;;;6059322;23;20179;-85
2023/10/15 08:49:01;;;;;;;0.20;0.20;;;18.10;52.30;;;;;;6082454;23;20144;-87
2023/10/15 08:51:28;;;;;;;0.25;0.20;;;18.10;52.50;;;;;;6080393;23;20152;-84
2023/10/15 08:53:57;;;;;;;0.20;0.20;;;18.00;52.30;;;;;;6079046;23;20148;-83
2023/10/15 08:56:25;;;;;;;0.93;0.30;;;18.10;52.50;;;;;;6104423;23;20133;-83
2023/10/15 08:58:52;;;;;;;0.10;0.10;;;18.10;52.70;;;;;;6079343;23;20477;-86
2023/10/15 09:01:19;;;;;;;0.98;0.20;;;18.10;52.60;;;;;;6104439;23;20144;-85
2023/10/15 09:03:45;;;;;;;0.38;0.20;;;18.10;52.70;;;;;;6103191;23;20151;-84
2023/10/15 09:06:11;;;;;;;0.40;0.20;;;18.10;52.60;;;;;;6102877;23;20184;-87
2023/10/15 09:08:41;;;;;;;0.85;0.20;;;18.10;52.40;;;;;;6133121;23;20136;-83
2023/10/15 09:11:07;;;;;;;1.02;0.30;;;18.10;52.60;;;;;;6109500;23;20129;-85
2023/10/15 09:13:38;;;;;;;1.05;0.20;;;18.10;52.80;;;;;;6107558;23;20215;-85
2023/10/15 09:16:05;;;;;;;0.40;0.22;;;18.10;52.80;;;;;;6034735;23;20215;-84
2023/10/15 09:18:35;;;;;;;0.20;0.20;;;18.00;52.80;;;;;;6083139;23;20214;-84
2023/10/15 09:21:06;;;;;;;1.08;0.35;;;18.10;52.60;;;;;;6086266;23;20152;-86
2023/10/15 09:23:35;;;;;;;1.27;0.20;;;18.10;52.30;;;;;;6038501;23;20156;-83
2023/10/15 09:26:01;;;;;;;0.25;0.20;;;18.10;52.30;;;;;;6110316;23;20239;-86
2023/10/15 09:28:28;;;;;;;0.20;0.20;;;18.10;52.10;;;;;;6084343;23;20155;-85
2023/10/15 09:31:04;;;;;;;0.20;0.20;;;18.10;51.90;;;;;;6108056;23;20133;-83
2023/10/15 09:33:30;;;;;;;0.30;0.20;;;18.10;51.90;;;;;;6108506;23;20187;-84
2023/10/15 09:35:58;;;;;;;0.63;0.20;;;18.00;51.40;;;;;;6106786;23;20141;-85
2023/10/15 09:38:23;;;;;;;0.38;0.20;;;18.20;51.60;;;;;;6108028;23;20196;-85
2023/10/15 09:40:49;;;;;;;0.20;0.20;;;18.10;51.70;;;;;;6082645;23;20230;-86
2023/10/15 09:43:16;;;;;;;0.60;0.20;;;18.20;51.80;;;;;;6107102;23;20164;-89
2023/10/15 09:45:42;;;;;;;0.30;0.20;;;18.10;51.60;;;;;;6132611;23;20172;-84
2023/10/15 09:48:10;;;;;;;0.32;0.30;;;18.10;51.60;;;;;;6107990;23;20136;-84
2023/10/15 09:50:39;;;;;;;0.60;0.22;;;18.10;51.70;;;;;;6085139;23;20163;-85
2023/10/15 09:53:09;;;;;;;0.60;0.20;;;18.10;51.50;;;;;;6109349;23;20505;-83
2023/10/15 09:55:37;;;;;;;0.73;0.25;;;18.10;51.50;;;;;;6135036;23;20137;-85
2023/10/15 09:58:05;;;;;;;0.65;0.30;;;18.10;51.50;;;;;;6108927;23;20224;-84
2023/10/15 10:00:59;;;;;;;0.50;0.30;;;18.10;51.40;;;;;;6108887;23;20219;-85
2023/10/15 10:03:57;;;;;;;0.93;0.40;;;18.10;51.40;;;;;;6111726;23;20175;-85
2023/10/15 10:07:00;;;;;;;0.20;0.20;;;18.20;51.70;;;;;;6099556;23;20191;-83
2023/10/15 10:09:41;;;;;;;0.20;0.20;;;18.10;52.00;;;;;;6111845;23;20214;-83
2023/10/15 10:12:27;;;;;;;0.30;0.20;;;18.20;51.50;;;;;;6108445;23;20136;-85
2023/10/15 10:15:30;;;;;;;0.20;0.20;;;18.20;51.80;;;;;;6107339;23;20152;-86
2023/10/15 10:17:59;;;;;;;0.20;0.20;;;18.10;51.40;;;;;;6086787;23;20152;-83
2023/10/15 10:20:33;;;;;;;1.45;0.30;;;18.20;51.60;;;;;;6107256;23;20144;-81
2023/10/15 10:23:04;;;;;;;0.20;0.20;;;18.20;51.40;;;;;;6108083;23;20172;-85
2023/10/15 10:25:31;;;;;;;0.30;0.20;;;18.20;51.40;;;;;;6034821;23;20258;-85
2023/10/15 10:28:13;;;;;;;0.90;0.35;;;18.20;51.00;;;;;;6106407;23;20132;-88
2023/10/15 10:30:40;;;;;;;0.22;0.22;;;18.30;51.10;;;;;;6106528;23;20168;-85
2023/10/15 10:33:09;;;;;;;1.98;0.40;;;18.30;51.10;;;;;;6105683;23;20129;-83
2023/10/15 10:35:43;;;;;;;0.57;0.40;;;18.20;51.00;;;;;;6103421;23;20148;-85
2023/10/15 10:38:12;;;;;;;0.70;0.30;;;18.20;50.90;;;;;;6102451;23;20186;-85
2023/10/15 10:40:52;;;;;;;0.93;0.20;;;18.10;50.70;;;;;;6102815;23;20139;-85
2023/10/15 10:43:26;;;;;;;0.65;0.35;;;18.20;50.90;;;;;;6101938;23;20235;-84
2023/10/15 10:45:55;;;;;;;0.50;0.40;;;18.10;50.40;;;;;;6101091;23;20190;-86
2023/10/15 10:48:25;;;;;;;0.65;0.40;;;18.20;50.30;;;;;;6102137;23;20211;-86
2023/10/15 10:54:25;;;;;;;0.50;0.20;;;18.20;50.30;;;;;;6104171;23;20136;-84
2023/10/15 10:56:55;;;;;;;2.38;0.45;;;18.20;50.10;;;;;;6066829;23;20152;-85
2023/10/15 10:59:21;;;;;;;0.65;0.35;;;18.10;50.10;;;;;;6126480;23;20188;-85
2023/10/15 11:01:46;;;;;;;0.63;0.30;;;18.10;49.90;;;;;;6101268;23;20148;-83
2023/10/15 11:04:15;;;;;;;0.63;0.32;;;18.10;49.90;;;;;;6101182;23;20148;-86
2023/10/15 11:06:45;;;;;;;0.50;0.40;;;18.20;49.60;;;;;;6100593;23;20262;-85
2023/10/15 11:09:28;;;;;;;0.80;0.30;;;18.10;49.70;;;;;;6126868;23;20211;-85
2023/10/15 11:11:55;;;;;;;0.80;0.25;;;18.20;49.40;;;;;;6104145;23;20124;-86
2023/10/15 11:14:23;;;;;;;0.65;0.35;;;18.10;49.50;;;;;;6127083;23;20169;-84
2023/10/15 11:16:50;;;;;;;0.82;0.30;;;18.20;49.20;;;;;;6101105;23;20132;-85
2023/10/15 11:19:18;;;;;;;1.05;0.20;;;18.20;49.20;;;;;;6100935;23;20215;-83
2023/10/15 11:21:44;;;;;;;1.45;0.50;;;18.10;49.20;;;;;;6100875;23;20140;-84
2023/10/15 11:24:10;;;;;;;0.50;0.30;;;18.10;49.00;;;;;;6052783;23;20154;-87
2023/10/15 11:26:37;;;;;;;0.47;0.22;;;18.10;48.80;;;;;;6100680;23;20171;-86
2023/10/15 11:29:04;;;;;;;0.98;0.40;;;18.10;48.80;;;;;;6101358;23;20133;-87
2023/10/15 11:31:34;;;;;;;0.47;0.32;;;18.10;48.70;;;;;;6078351;23;20183;-85
2023/10/15 11:34:00;;;;;;;1.08;0.30;;;18.10;48.90;;;;;;6102886;23;20215;-85
2023/10/15 11:36:27;;;;;;;1.27;0.30;;;18.10;48.80;;;;;;6102425;23;20236;-85
2023/10/15 11:38:53;;;;;;;1.10;0.30;;;18.10;48.70;;;;;;6102695;23;20136;-86
2023/10/15 11:41:20;;;;;;;0.30;0.30;;;18.10;48.50;;;;;;6102509;23;20167;-87
2023/10/15 11:43:48;;;;;;;0.77;0.60;;;18.10;48.50;;;;;;6079267;23;20215;-84
2023/10/15 11:46:16;;;;;;;1.30;0.43;;;18.10;48.30;;;;;;6105082;23;20492;-86
2023/10/15 11:48:42;;;;;;;0.52;0.20;;;18.10;48.30;;;;;;6128925;23;20215;-85
2023/10/15 11:51:09;;;;;;;1.10;0.65;;;18.10;48.20;;;;;;6104188;23;20140;-86
2023/10/15 11:53:35;;;;;;;1.42;0.43;;;18.10;48.90;;;;;;6077881;23;20295;-84
2023/10/15 11:56:02;;;;;;;0.82;0.47;;;18.10;48.10;;;;;;6127162;23;20188;-86
2023/10/15 11:58:31;;;;;;;1.02;0.35;;;18.10;47.90;;;;;;6102537;23;20141;-84
2023/10/15 12:01:00;;;;;;;0.45;0.30;;;18.10;48.60;;;;;;6077547;23;20505;-86
2023/10/15 12:03:29;;;;;;;2.22;0.40;;;18.10;47.80;;;;;;6076854;23;20239;-83
2023/10/15 12:05:55;;;;;;;0.70;0.30;;;18.10;47.80;;;;;;6101338;23;20163;-84
2023/10/15 12:08:24;;;;;;;1.13;0.40;;;18.10;47.60;;;;;;6101892;23;20553;-87
2023/10/15 12:10:52;;;;;;;0.50;0.30;;;18.10;47.60;;;;;;6127242;23;20135;-85
2023/10/15 12:13:19;;;;;;;0.60;0.35;;;18.10;47.50;;;;;;6127201;23;20203;-84
2023/10/15 12:15:44;;;;;;;2.30;0.45;;;18.10;47.50;;;;;;6127119;23;20141;-84
2023/10/15 12:18:13;;;;;;;1.08;0.47;;;18.00;47.40;;;;;;6101605;23;20163;-87
2023/10/15 12:20:38;;;;;;;0.85;0.40;;;18.10;47.40;;;;;;6126843;23;20143;-84
2023/10/15 12:23:04;;;;;;;2.50;0.40;;;18.10;47.20;;;;;;6101408;23;20136;-84
2023/10/15 12:25:30;;;;;;;0.75;0.35;;;18.10;47.20;;;;;;6126408;23;20536;-83
2023/10/15 12:27:55;;;;;;;1.17;0.45;;;18.10;47.10;;;;;;6100654;23;20163;-87
2023/10/15 12:30:24;;;;;;;1.50;0.32;;;18.10;47.10;;;;;;6076327;23;20148;-84
2023/10/15 12:32:53;;;;;;;0.65;0.40;;;18.00;47.10;;;;;;6077338;23;20158;-86
2023/10/15 12:35:19;;;;;;;0.60;0.40;;;18.10;47.10;;;;;;6101231;23;20627;-83
2023/10/15 12:37:45;;;;;;;0.85;0.40;;;18.10;47.00;;;;;;6076538;23;20363;-85
2023/10/15 12:40:21;;;;;;;1.05;0.40;;;18.10;47.00;;;;;;6076661;23;20159;-84
2023/10/15 12:42:49;;;;;;;1.35;0.60;;;18.10;46.90;;;;;;6100778;23;20179;-83
2023/10/15 12:45:14;;;;;;;0.70;0.40;;;18.10;46.80;;;;;;6101574;23;20579;-83
2023/10/15 12:47:40;;;;;;;0.77;0.50;;;18.10;46.80;;;;;;6101188;23;20859;-85
2023/10/15 12:50:17;;;;;;;2.55;0.35;;;18.10;46.80;;;;;;6100715;23;20172;-83
2023/10/15 12:52:45;;;;;;;0.75;0.28;;;18.10;46.70;;;;;;6079119;23;20484;-86
2023/10/15 12:55:11;;;;;;;0.65;0.38;;;18.00;46.70;;;;;;6101918;23;20152;-85
2023/10/15 12:57:38;;;;;;;1.38;0.35;;;18.00;46.70;;;;;;6100498;23;20141;-86
2023/10/15 13:00:13;;;;;;;0.50;0.30;;;18.10;46.60;;;;;;6102452;23;20192;-83
2023/10/15 13:02:44;;;;;;;1.15;0.45;;;18.10;46.50;;;;;;6104656;23;20140;-85